Terminal Aerodrome Forecast
Issued by NWS

Home | Current Version | Previous Version | Text Only | Print | Product List | Glossary On
Versions: 1 2 3 4 5 6 7 8 9 10 11 12 13
000
FTUS45 KGJT 101142
TAFVEL
TAF
KVEL 101142Z 1012/1112 35004KT P6SM FEW140 BKN200
     FM101800 VRB03KT P6SM VCSH BKN060
     FM102200 25005KT P6SM VCSH OVC025
     FM110600 28004KT 6SM BR OVC020=

USA.gov is the U.S. government's official web portal to all federal, state and local government web resources and services.